sensor_id;sensor_type;location;lat;lon;timestamp;pressure;altitude;pressure_sealevel;temperature;humidity
72570;BME280;60594;50.204;8.844;2023-05-15T00:00:18;99645.81;;;12.03;90.51
72570;BME280;60594;50.204;8.844;2023-05-15T00:03:04;99648.06;;;12.08;90.36
72570;BME280;60594;50.204;8.844;2023-05-15T00:05:31;99647.66;;;12.03;90.38
72570;BME280;60594;50.204;8.844;2023-05-15T00:07:57;99645.00;;;12.03;90.67
72570;BME280;60594;50.204;8.844;2023-05-15T00:10:24;99641.91;;;11.98;90.60
72570;BME280;60594;50.204;8.844;2023-05-15T00:12:51;99641.09;;;11.97;90.96
72570;BME280;60594;50.204;8.844;2023-05-15T00:15:17;99643.91;;;11.96;91.65
72570;BME280;60594;50.204;8.844;2023-05-15T00:17:47;99649.50;;;12.02;91.46
72570;BME280;60594;50.204;8.844;2023-05-15T00:20:13;99644.97;;;12.12;89.94
72570;BME280;60594;50.204;8.844;2023-05-15T00:22:40;99646.69;;;12.04;90.54
72570;BME280;60594;50.204;8.844;2023-05-15T00:25:08;99641.34;;;12.04;91.18
72570;BME280;60594;50.204;8.844;2023-05-15T00:27:35;99633.38;;;11.85;91.43
72570;BME280;60594;50.204;8.844;2023-05-15T00:30:04;99635.47;;;11.91;92.36
72570;BME280;60594;50.204;8.844;2023-05-15T00:32:32;99628.97;;;11.93;91.41
72570;BME280;60594;50.204;8.844;2023-05-15T00:34:59;99628.44;;;11.90;91.49
72570;BME280;60594;50.204;8.844;2023-05-15T00:37:26;99625.22;;;11.77;91.40
72570;BME280;60594;50.204;8.844;2023-05-15T00:39:53;99624.13;;;11.79;91.20
72570;BME280;60594;50.204;8.844;2023-05-15T00:42:19;99630.59;;;11.58;93.00
72570;BME280;60594;50.204;8.844;2023-05-15T00:44:47;99628.06;;;11.56;93.84
72570;BME280;60594;50.204;8.844;2023-05-15T00:47:14;99630.91;;;11.55;94.16
72570;BME280;60594;50.204;8.844;2023-05-15T00:49:43;99619.78;;;11.69;92.94
72570;BME280;60594;50.204;8.844;2023-05-15T00:52:10;99621.19;;;11.63;93.12
72570;BME280;60594;50.204;8.844;2023-05-15T00:54:37;99622.75;;;11.66;93.45
72570;BME280;60594;50.204;8.844;2023-05-15T00:57:05;99622.03;;;11.73;93.13
72570;BME280;60594;50.204;8.844;2023-05-15T00:59:37;99614.28;;;11.70;93.04
72570;BME280;60594;50.204;8.844;2023-05-15T01:02:04;99614.72;;;11.47;95.00
72570;BME280;60594;50.204;8.844;2023-05-15T01:04:31;99616.16;;;11.41;95.59
72570;BME280;60594;50.204;8.844;2023-05-15T01:06:57;99617.41;;;11.47;95.09
72570;BME280;60594;50.204;8.844;2023-05-15T01:09:26;99619.66;;;11.61;94.08
72570;BME280;60594;50.204;8.844;2023-05-15T01:11:56;99601.41;;;11.66;93.55
72570;BME280;60594;50.204;8.844;2023-05-15T01:14:25;99605.31;;;11.62;93.02
72570;BME280;60594;50.204;8.844;2023-05-15T01:16:52;99605.03;;;11.65;93.06
72570;BME280;60594;50.204;8.844;2023-05-15T01:19:19;99613.75;;;11.67;93.26
72570;BME280;60594;50.204;8.844;2023-05-15T01:22:08;99622.19;;;11.62;93.65
72570;BME280;60594;50.204;8.844;2023-05-15T01:27:50;99616.56;;;11.65;93.53
72570;BME280;60594;50.204;8.844;2023-05-15T01:30:28;99605.75;;;11.67;92.97
72570;BME280;60594;50.204;8.844;2023-05-15T01:33:33;99615.59;;;11.47;94.45
72570;BME280;60594;50.204;8.844;2023-05-15T01:36:08;99621.94;;;11.37;95.26
72570;BME280;60594;50.204;8.844;2023-05-15T01:38:52;99608.31;;;11.21;96.51
72570;BME280;60594;50.204;8.844;2023-05-15T01:41:37;99608.88;;;11.24;95.78
72570;BME280;60594;50.204;8.844;2023-05-15T01:44:17;99610.00;;;11.31;94.70
72570;BME280;60594;50.204;8.844;2023-05-15T01:46:49;99609.41;;;11.28;95.12
72570;BME280;60594;50.204;8.844;2023-05-15T01:49:18;99616.16;;;11.22;96.08
72570;BME280;60594;50.204;8.844;2023-05-15T01:51:50;99615.03;;;11.25;95.77
72570;BME280;60594;50.204;8.844;2023-05-15T01:54:21;99617.28;;;11.20;95.60
72570;BME280;60594;50.204;8.844;2023-05-15T01:56:48;99621.22;;;11.35;95.55
72570;BME280;60594;50.204;8.844;2023-05-15T01:59:18;99620.22;;;11.26;95.47
72570;BME280;60594;50.204;8.844;2023-05-15T02:01:45;99618.97;;;11.21;95.85
72570;BME280;60594;50.204;8.844;2023-05-15T02:04:12;99620.81;;;11.30;95.08
72570;BME280;60594;50.204;8.844;2023-05-15T02:06:39;99629.38;;;11.24;95.49
72570;BME280;60594;50.204;8.844;2023-05-15T02:09:09;99615.31;;;11.03;96.52
72570;BME280;60594;50.204;8.844;2023-05-15T02:11:39;99611.09;;;11.10;95.65
72570;BME280;60594;50.204;8.844;2023-05-15T02:14:07;99618.28;;;11.28;94.60
72570;BME280;60594;50.204;8.844;2023-05-15T02:16:34;99613.47;;;11.32;94.32
72570;BME280;60594;50.204;8.844;2023-05-15T02:19:01;99609.28;;;11.20;94.57
72570;BME280;60594;50.204;8.844;2023-05-15T02:21:28;99609.28;;;11.20;94.35
72570;BME280;60594;50.204;8.844;2023-05-15T02:23:55;99596.97;;;11.00;95.41
72570;BME280;60594;50.204;8.844;2023-05-15T02:26:59;99601.16;;;11.12;95.03
72570;BME280;60594;50.204;8.844;2023-05-15T02:34:53;99598.34;;;11.04;94.92
72570;BME280;60594;50.204;8.844;2023-05-15T02:37:26;99591.31;;;11.03;94.24
72570;BME280;60594;50.204;8.844;2023-05-15T02:39:56;99598.38;;;10.94;95.77
72570;BME280;60594;50.204;8.844;2023-05-15T02:42:28;99593.44;;;10.80;96.16
72570;BME280;60594;50.204;8.844;2023-05-15T02:45:02;99593.84;;;10.95;95.03
72570;BME280;60594;50.204;8.844;2023-05-15T02:47:31;99590.91;;;10.88;96.18
72570;BME280;60594;50.204;8.844;2023-05-15T02:50:00;99594.00;;;10.93;95.43
72570;BME280;60594;50.204;8.844;2023-05-15T02:52:27;99602.28;;;10.90;95.52
72570;BME280;60594;50.204;8.844;2023-05-15T02:54:54;99589.91;;;10.89;95.63
72570;BME280;60594;50.204;8.844;2023-05-15T02:57:21;99591.75;;;10.89;95.15
72570;BME280;60594;50.204;8.844;2023-05-15T02:59:48;99598.34;;;10.85;95.36
72570;BME280;60594;50.204;8.844;2023-05-15T03:02:14;99589.09;;;10.89;94.93
72570;BME280;60594;50.204;8.844;2023-05-15T03:04:41;99595.38;;;10.88;94.12
72570;BME280;60594;50.204;8.844;2023-05-15T03:07:08;99595.66;;;10.66;95.12
72570;BME280;60594;50.204;8.844;2023-05-15T03:09:34;99595.25;;;10.70;93.74
72570;BME280;60594;50.204;8.844;2023-05-15T03:12:01;99603.50;;;10.77;93.41
72570;BME280;60594;50.204;8.844;2023-05-15T03:14:28;99598.50;;;10.74;93.90
72570;BME280;60594;50.204;8.844;2023-05-15T03:16:55;99597.34;;;10.67;94.95
72570;BME280;60594;50.204;8.844;2023-05-15T03:19:21;99601.69;;;10.58;94.45
72570;BME280;60594;50.204;8.844;2023-05-15T03:21:51;99597.59;;;10.54;93.85
72570;BME280;60594;50.204;8.844;2023-05-15T03:24:18;99591.25;;;10.36;94.43
72570;BME280;60594;50.204;8.844;2023-05-15T03:26:49;99594.31;;;10.31;95.13
72570;BME280;60594;50.204;8.844;2023-05-15T03:29:17;99596.78;;;10.14;96.17
72570;BME280;60594;50.204;8.844;2023-05-15T03:31:45;99592.91;;;10.27;97.09
72570;BME280;60594;50.204;8.844;2023-05-15T03:34:12;99595.44;;;10.29;96.37
72570;BME280;60594;50.204;8.844;2023-05-15T03:36:39;99587.19;;;10.02;96.92
72570;BME280;60594;50.204;8.844;2023-05-15T03:39:05;99585.72;;;10.09;96.93
72570;BME280;60594;50.204;8.844;2023-05-15T03:41:32;99586.41;;;10.11;95.20
72570;BME280;60594;50.204;8.844;2023-05-15T03:44:00;99594.41;;;10.11;94.96
72570;BME280;60594;50.204;8.844;2023-05-15T03:46:26;99589.56;;;10.05;94.67
72570;BME280;60594;50.204;8.844;2023-05-15T03:48:53;99593.34;;;10.02;95.71
72570;BME280;60594;50.204;8.844;2023-05-15T03:51:23;99603.78;;;9.85;95.02
72570;BME280;60594;50.204;8.844;2023-05-15T03:53:53;99598.97;;;9.79;96.17
72570;BME280;60594;50.204;8.844;2023-05-15T03:56:22;99603.06;;;9.83;95.29
72570;BME280;60594;50.204;8.844;2023-05-15T03:58:49;99594.94;;;9.84;95.18
72570;BME280;60594;50.204;8.844;2023-05-15T04:01:17;99598.34;;;9.86;95.70
72570;BME280;60594;50.204;8.844;2023-05-15T04:03:44;99585.16;;;9.85;95.68
72570;BME280;60594;50.204;8.844;2023-05-15T04:06:12;99602.66;;;9.87;95.67
72570;BME280;60594;50.204;8.844;2023-05-15T04:08:39;99607.59;;;9.92;96.03
72570;BME280;60594;50.204;8.844;2023-05-15T04:11:09;99605.06;;;9.90;96.31
72570;BME280;60594;50.204;8.844;2023-05-15T04:13:35;99608.72;;;9.89;96.65
72570;BME280;60594;50.204;8.844;2023-05-15T04:16:04;99607.00;;;9.88;95.93
72570;BME280;60594;50.204;8.844;2023-05-15T04:18:32;99610.53;;;9.89;96.25
72570;BME280;60594;50.204;8.844;2023-05-15T04:20:58;99603.78;;;9.85;96.03
72570;BME280;60594;50.204;8.844;2023-05-15T04:23:25;99603.66;;;9.86;96.98
72570;BME280;60594;50.204;8.844;2023-05-15T04:25:52;99613.06;;;9.90;97.43
72570;BME280;60594;50.204;8.844;2023-05-15T04:28:20;99601.00;;;9.86;97.41
72570;BME280;60594;50.204;8.844;2023-05-15T04:30:47;99606.75;;;9.91;96.78
72570;BME280;60594;50.204;8.844;2023-05-15T04:33:13;99608.72;;;9.89;97.26
72570;BME280;60594;50.204;8.844;2023-05-15T04:35:41;99607.59;;;9.92;97.79
72570;BME280;60594;50.204;8.844;2023-05-15T04:38:08;99605.06;;;9.90;98.03
72570;BME280;60594;50.204;8.844;2023-05-15T04:40:35;99609.16;;;9.94;98.07
72570;BME280;60594;50.204;8.844;2023-05-15T04:43:01;99610.16;;;10.03;98.97
72570;BME280;60594;50.204;8.844;2023-05-15T04:45:29;99607.03;;;10.09;99.25
72570;BME280;60594;50.204;8.844;2023-05-15T04:47:56;99608.31;;;10.14;99.41
72570;BME280;60594;50.204;8.844;2023-05-15T04:50:23;99610.28;;;10.22;99.58
72570;BME280;60594;50.204;8.844;2023-05-15T04:52:49;99608.88;;;10.27;98.99
72570;BME280;60594;50.204;8.844;2023-05-15T04:55:16;99613.53;;;10.25;99.16
72570;BME280;60594;50.204;8.844;2023-05-15T04:57:45;99613.34;;;10.27;99.99
72570;BME280;60594;50.204;8.844;2023-05-15T05:00:13;99612.53;;;10.26;99.81
72570;BME280;60594;50.204;8.844;2023-05-15T05:02:40;99611.94;;;10.23;100.00
72570;BME280;60594;50.204;8.844;2023-05-15T05:05:11;99607.50;;;10.33;100.00
72570;BME280;60594;50.204;8.844;2023-05-15T05:07:39;99609.78;;;10.38;99.89
72570;BME280;60594;50.204;8.844;2023-05-15T05:10:07;99604.97;;;10.31;99.94
72570;BME280;60594;50.204;8.844;2023-05-15T05:12:33;99621.72;;;10.53;99.03
72570;BME280;60594;50.204;8.844;2023-05-15T05:15:00;99617.09;;;10.55;98.57
72570;BME280;60594;50.204;8.844;2023-05-15T05:17:28;99612.47;;;10.57;97.93
72570;BME280;60594;50.204;8.844;2023-05-15T05:19:57;99613.31;;;10.57;99.17
72570;BME280;60594;50.204;8.844;2023-05-15T05:22:23;99622.13;;;10.48;99.39
72570;BME280;60594;50.204;8.844;2023-05-15T05:24:50;99625.25;;;10.63;100.00
72570;BME280;60594;50.204;8.844;2023-05-15T05:27:17;99618.69;;;10.67;100.00
72570;BME280;60594;50.204;8.844;2023-05-15T05:29:44;99616.97;;;10.75;99.81
72570;BME280;60594;50.204;8.844;2023-05-15T05:32:11;99622.19;;;10.86;99.40
72570;BME280;60594;50.204;8.844;2023-05-15T05:34:39;99621.50;;;10.94;99.39
72570;BME280;60594;50.204;8.844;2023-05-15T05:37:06;99624.59;;;10.99;99.52
72570;BME280;60594;50.204;8.844;2023-05-15T05:39:32;99621.09;;;10.79;99.66
72570;BME280;60594;50.204;8.844;2023-05-15T05:42:00;99629.63;;;10.92;100.00
72570;BME280;60594;50.204;8.844;2023-05-15T05:44:48;99621.50;;;10.94;100.00
72570;BME280;60594;50.204;8.844;2023-05-15T05:47:35;99633.72;;;11.06;99.30
72570;BME280;60594;50.204;8.844;2023-05-15T05:50:02;99630.63;;;11.01;99.24
72570;BME280;60594;50.204;8.844;2023-05-15T05:52:28;99635.97;;;11.20;98.02
72570;BME280;60594;50.204;8.844;2023-05-15T05:54:55;99631.88;;;11.25;97.41
72570;BME280;60594;50.204;8.844;2023-05-15T05:57:26;99633.03;;;11.23;98.20
72570;BME280;60594;50.204;8.844;2023-05-15T05:59:58;99621.91;;;10.99;100.00
72570;BME280;60594;50.204;8.844;2023-05-15T06:02:25;99621.22;;;11.06;100.00
72570;BME280;60594;50.204;8.844;2023-05-15T06:04:52;99625.03;;;11.23;100.00
72570;BME280;60594;50.204;8.844;2023-05-15T06:07:19;99620.94;;;11.19;99.49
72570;BME280;60594;50.204;8.844;2023-05-15T06:10:06;99613.50;;;11.13;99.08
72570;BME280;60594;50.204;8.844;2023-05-15T06:12:35;99611.69;;;11.23;99.79
72570;BME280;60594;50.204;8.844;2023-05-15T06:15:02;99617.00;;;11.23;99.86
72570;BME280;60594;50.204;8.844;2023-05-15T06:17:30;99615.91;;;11.06;100.00
72570;BME280;60594;50.204;8.844;2023-05-15T06:19:57;99615.63;;;11.19;100.00
72570;BME280;60594;50.204;8.844;2023-05-15T06:22:45;99618.97;;;11.30;99.54
72570;BME280;60594;50.204;8.844;2023-05-15T06:25:12;99619.94;;;11.48;98.80
72570;BME280;60594;50.204;8.844;2023-05-15T06:27:40;99608.84;;;11.53;98.88
72570;BME280;60594;50.204;8.844;2023-05-15T06:30:10;99616.88;;;11.34;93.96
72570;BME280;60594;50.204;8.844;2023-05-15T06:32:37;99621.63;;;11.30;97.28
72570;BME280;60594;50.204;8.844;2023-05-15T06:35:06;99630.44;;;11.59;98.05
72570;BME280;60594;50.204;8.844;2023-05-15T06:37:34;99616.16;;;11.41;96.49
72570;BME280;60594;50.204;8.844;2023-05-15T06:40:04;99619.69;;;11.32;97.90
72570;BME280;60594;50.204;8.844;2023-05-15T06:42:32;99622.59;;;11.39;98.44
72570;BME280;60594;50.204;8.844;2023-05-15T06:44:59;99613.63;;;11.40;96.33
72570;BME280;60594;50.204;8.844;2023-05-15T06:47:25;99619.09;;;11.67;96.05
72570;BME280;60594;50.204;8.844;2023-05-15T06:49:53;99610.75;;;11.89;95.10
72570;BME280;60594;50.204;8.844;2023-05-15T06:52:21;99625.41;;;12.12;93.98
72570;BME280;60594;50.204;8.844;2023-05-15T06:54:47;99625.13;;;12.15;93.34
72570;BME280;60594;50.204;8.844;2023-05-15T06:57:14;99618.09;;;12.14;92.85
72570;BME280;60594;50.204;8.844;2023-05-15T06:59:42;99624.53;;;12.21;92.21
72570;BME280;60594;50.204;8.844;2023-05-15T07:02:09;99613.63;;;12.41;92.59
72570;BME280;60594;50.204;8.844;2023-05-15T07:04:35;99607.16;;;12.61;91.59
72570;BME280;60594;50.204;8.844;2023-05-15T07:07:02;99601.44;;;12.74;89.50
72570;BME280;60594;50.204;8.844;2023-05-15T07:09:29;99603.97;;;12.93;88.77
72570;BME280;60594;50.204;8.844;2023-05-15T07:11:56;99606.63;;;13.02;88.72
72570;BME280;60594;50.204;8.844;2023-05-15T07:14:23;99603.22;;;12.83;88.40
72570;BME280;60594;50.204;8.844;2023-05-15T07:16:50;99603.69;;;12.96;89.91
72570;BME280;60594;50.204;8.844;2023-05-15T07:19:17;99608.97;;;13.23;87.98
72570;BME280;60594;50.204;8.844;2023-05-15T07:21:46;99618.53;;;13.43;86.82
72570;BME280;60594;50.204;8.844;2023-05-15T07:24:12;99610.25;;;13.54;86.64
72570;BME280;60594;50.204;8.844;2023-05-15T07:26:43;99610.34;;;13.70;86.88
72570;BME280;60594;50.204;8.844;2023-05-15T07:29:13;99605.19;;;13.77;86.75
72570;BME280;60594;50.204;8.844;2023-05-15T07:31:40;99611.16;;;13.88;86.93
72570;BME280;60594;50.204;8.844;2023-05-15T07:34:11;99600.66;;;14.03;85.64
72570;BME280;60594;50.204;8.844;2023-05-15T07:36:37;99605.41;;;14.09;84.73
72570;BME280;60594;50.204;8.844;2023-05-15T07:39:09;99605.38;;;14.01;85.07
72570;BME280;60594;50.204;8.844;2023-05-15T07:41:36;99601.25;;;14.14;84.77
72570;BME280;60594;50.204;8.844;2023-05-15T07:44:02;99600.25;;;14.15;83.45
72570;BME280;60594;50.204;8.844;2023-05-15T07:46:29;99593.00;;;14.08;84.79
72570;BME280;60594;50.204;8.844;2023-05-15T07:48:56;99590.06;;;14.19;83.27
72570;BME280;60594;50.204;8.844;2023-05-15T07:51:22;99592.81;;;14.35;83.05
72570;BME280;60594;50.204;8.844;2023-05-15T07:53:49;99589.09;;;14.28;82.95
72570;BME280;60594;50.204;8.844;2023-05-15T07:56:16;99588.69;;;14.48;82.30
72570;BME280;60594;50.204;8.844;2023-05-15T07:58:42;99582.69;;;14.54;82.61
72570;BME280;60594;50.204;8.844;2023-05-15T08:01:09;99581.91;;;14.78;80.77
72570;BME280;60594;50.204;8.844;2023-05-15T08:03:36;99583.44;;;14.96;80.92
72570;BME280;60594;50.204;8.844;2023-05-15T08:06:03;99578.44;;;15.09;79.18
72570;BME280;60594;50.204;8.844;2023-05-15T08:08:33;99576.75;;;15.24;81.04
72570;BME280;60594;50.204;8.844;2023-05-15T08:11:01;99577.09;;;15.37;79.36
72570;BME280;60594;50.204;8.844;2023-05-15T08:13:29;99574.41;;;15.45;75.75
72570;BME280;60594;50.204;8.844;2023-05-15T08:15:55;99572.22;;;15.33;76.99
72570;BME280;60594;50.204;8.844;2023-05-15T08:18:23;99563.03;;;15.35;77.96
72570;BME280;60594;50.204;8.844;2023-05-15T08:20:50;99564.66;;;15.60;74.26
72570;BME280;60594;50.204;8.844;2023-05-15T08:23:19;99572.19;;;15.73;75.47
72570;BME280;60594;50.204;8.844;2023-05-15T08:25:46;99577.56;;;15.89;75.23
72570;BME280;60594;50.204;8.844;2023-05-15T08:28:13;99573.78;;;16.06;75.54
72570;BME280;60594;50.204;8.844;2023-05-15T08:30:39;99573.97;;;16.04;76.32
72570;BME280;60594;50.204;8.844;2023-05-15T08:33:06;99569.19;;;16.22;75.45
72570;BME280;60594;50.204;8.844;2023-05-15T08:35:33;99567.16;;;16.32;74.04
72570;BME280;60594;50.204;8.844;2023-05-15T08:38:00;99570.13;;;16.37;74.11
72570;BME280;60594;50.204;8.844;2023-05-15T08:40:26;99566.13;;;16.41;73.76
72570;BME280;60594;50.204;8.844;2023-05-15T08:43:00;99564.28;;;16.42;73.70
72570;BME280;60594;50.204;8.844;2023-05-15T08:45:30;99576.72;;;16.43;74.14
72570;BME280;60594;50.204;8.844;2023-05-15T08:47:59;99564.88;;;16.60;69.36
72570;BME280;60594;50.204;8.844;2023-05-15T08:50:27;99561.66;;;16.64;73.47
72570;BME280;60594;50.204;8.844;2023-05-15T08:52:55;99564.91;;;16.83;68.08
72570;BME280;60594;50.204;8.844;2023-05-15T08:55:23;99565.81;;;16.98;67.66
72570;BME280;60594;50.204;8.844;2023-05-15T08:57:50;99560.19;;;17.07;64.71
72570;BME280;60594;50.204;8.844;2023-05-15T09:00:17;99566.16;;;17.17;61.28
72570;BME280;60594;50.204;8.844;2023-05-15T09:02:46;99561.69;;;17.32;62.31
72570;BME280;60594;50.204;8.844;2023-05-15T09:05:13;99557.56;;;17.44;59.69
72570;BME280;60594;50.204;8.844;2023-05-15T09:07:41;99559.63;;;17.57;60.02
72570;BME280;60594;50.204;8.844;2023-05-15T09:10:12;99554.53;;;17.76;58.41
72570;BME280;60594;50.204;8.844;2023-05-15T09:12:43;99550.66;;;17.93;59.37
72570;BME280;60594;50.204;8.844;2023-05-15T09:15:13;99548.13;;;18.21;58.66
72570;BME280;60594;50.204;8.844;2023-05-15T09:17:44;99557.03;;;18.65;58.95
72570;BME280;60594;50.204;8.844;2023-05-15T09:20:32;99548.91;;;19.00;57.25
72570;BME280;60594;50.204;8.844;2023-05-15T09:23:00;99549.66;;;19.30;57.37
72570;BME280;60594;50.204;8.844;2023-05-15T09:28:00;99544.34;;;19.43;57.16
72570;BME280;60594;50.204;8.844;2023-05-15T09:30:27;99545.59;;;19.40;57.03
72570;BME280;60594;50.204;8.844;2023-05-15T09:33:00;99545.56;;;19.61;60.57
72570;BME280;60594;50.204;8.844;2023-05-15T09:35:38;99547.59;;;19.87;55.01
72570;BME280;60594;50.204;8.844;2023-05-15T09:38:09;99543.25;;;19.58;54.66
72570;BME280;60594;50.204;8.844;2023-05-15T09:41:01;99535.19;;;19.99;57.69
72570;BME280;60594;50.204;8.844;2023-05-15T09:43:33;99531.16;;;20.16;58.19
72570;BME280;60594;50.204;8.844;2023-05-15T09:45:59;99529.16;;;19.97;54.79
72570;BME280;60594;50.204;8.844;2023-05-15T09:48:27;99522.66;;;20.19;57.36
72570;BME280;60594;50.204;8.844;2023-05-15T09:50:54;99531.56;;;19.58;59.43
72570;BME280;60594;50.204;8.844;2023-05-15T09:53:24;99532.31;;;19.45;58.52
72570;BME280;60594;50.204;8.844;2023-05-15T09:55:54;99523.13;;;19.19;59.55
72570;BME280;60594;50.204;8.844;2023-05-15T09:58:21;99519.97;;;18.94;60.37
72570;BME280;60594;50.204;8.844;2023-05-15T10:00:50;99526.28;;;18.45;59.94
72570;BME280;60594;50.204;8.844;2023-05-15T10:03:17;99528.31;;;18.28;62.05
72570;BME280;60594;50.204;8.844;2023-05-15T10:05:47;99532.13;;;18.19;69.01
72570;BME280;60594;50.204;8.844;2023-05-15T10:08:15;99527.41;;;17.92;72.34
72570;BME280;60594;50.204;8.844;2023-05-15T10:10:52;99533.22;;;17.52;76.31
72570;BME280;60594;50.204;8.844;2023-05-15T10:13:20;99531.13;;;17.40;77.86
72570;BME280;60594;50.204;8.844;2023-05-15T10:15:49;99528.50;;;17.32;77.88
72570;BME280;60594;50.204;8.844;2023-05-15T10:18:17;99527.38;;;17.26;69.95
72570;BME280;60594;50.204;8.844;2023-05-15T10:20:46;99527.91;;;17.22;72.40
72570;BME280;60594;50.204;8.844;2023-05-15T10:23:15;99523.28;;;17.16;74.15
72570;BME280;60594;50.204;8.844;2023-05-15T10:25:54;99528.44;;;17.17;70.58
72570;BME280;60594;50.204;8.844;2023-05-15T10:28:22;99525.22;;;17.22;71.54
72570;BME280;60594;50.204;8.844;2023-05-15T10:30:52;99519.66;;;17.23;72.42
72570;BME280;60594;50.204;8.844;2023-05-15T10:33:20;99522.34;;;17.23;72.77
72570;BME280;60594;50.204;8.844;2023-05-15T10:35:48;99517.97;;;17.45;69.51
72570;BME280;60594;50.204;8.844;2023-05-15T10:38:18;99509.09;;;17.88;71.50
72570;BME280;60594;50.204;8.844;2023-05-15T10:40:47;99503.38;;;18.41;62.81
72570;BME280;60594;50.204;8.844;2023-05-15T10:43:15;99501.09;;;18.94;62.49
72570;BME280;60594;50.204;8.844;2023-05-15T10:45:42;99497.09;;;19.32;59.94
72570;BME280;60594;50.204;8.844;2023-05-15T10:48:11;99496.63;;;19.29;55.34
72570;BME280;60594;50.204;8.844;2023-05-15T10:50:38;99490.19;;;19.09;58.59
72570;BME280;60594;50.204;8.844;2023-05-15T10:53:09;99486.59;;;19.23;58.95
72570;BME280;60594;50.204;8.844;2023-05-15T10:55:36;99485.16;;;19.48;58.15
72570;BME280;60594;50.204;8.844;2023-05-15T10:58:08;99486.75;;;19.70;58.40
72570;BME280;60594;50.204;8.844;2023-05-15T11:00:43;99479.44;;;20.04;61.11
72570;BME280;60594;50.204;8.844;2023-05-15T11:03:15;99474.22;;;20.03;53.05
72570;BME280;60594;50.204;8.844;2023-05-15T11:06:07;99472.91;;;19.86;54.04
72570;BME280;60594;50.204;8.844;2023-05-15T11:08:39;99469.59;;;19.56;56.75
72570;BME280;60594;50.204;8.844;2023-05-15T11:11:06;99467.78;;;19.36;60.77
72570;BME280;60594;50.204;8.844;2023-05-15T11:17:12;99479.25;;;18.96;58.55
72570;BME280;60594;50.204;8.844;2023-05-15T11:22:28;99474.78;;;18.82;59.71
72570;BME280;60594;50.204;8.844;2023-05-15T11:25:09;99472.06;;;18.82;60.38
72570;BME280;60594;50.204;8.844;2023-05-15T11:27:41;99470.09;;;19.18;63.71
72570;BME280;60594;50.204;8.844;2023-05-15T11:32:49;99470.19;;;19.79;63.46
72570;BME280;60594;50.204;8.844;2023-05-15T11:35:20;99477.44;;;19.79;59.33
72570;BME280;60594;50.204;8.844;2023-05-15T11:37:50;99472.34;;;19.63;59.22
72570;BME280;60594;50.204;8.844;2023-05-15T11:40:19;99472.50;;;19.55;60.28
72570;BME280;60594;50.204;8.844;2023-05-15T11:46:06;99475.75;;;19.44;59.34
72570;BME280;60594;50.204;8.844;2023-05-15T11:48:36;99469.59;;;19.29;61.53
72570;BME280;60594;50.204;8.844;2023-05-15T11:51:04;99474.56;;;19.25;64.99
72570;BME280;60594;50.204;8.844;2023-05-15T11:53:32;99471.13;;;19.38;64.27
72570;BME280;60594;50.204;8.844;2023-05-15T11:55:58;99467.78;;;19.36;59.46
72570;BME280;60594;50.204;8.844;2023-05-15T11:58:25;99475.19;;;19.27;63.57
72570;BME280;60594;50.204;8.844;2023-05-15T12:00:53;99474.88;;;18.95;59.69
72570;BME280;60594;50.204;8.844;2023-05-15T12:03:24;99479.56;;;18.86;62.95
72570;BME280;60594;50.204;8.844;2023-05-15T12:05:52;99471.94;;;18.69;59.68
72570;BME280;60594;50.204;8.844;2023-05-15T12:08:20;99479.00;;;18.70;60.52
72570;BME280;60594;50.204;8.844;2023-05-15T12:10:47;99487.03;;;18.63;60.86
72570;BME280;60594;50.204;8.844;2023-05-15T12:13:16;99488.25;;;18.61;62.94
72570;BME280;60594;50.204;8.844;2023-05-15T12:15:45;99494.44;;;18.26;62.28
72570;BME280;60594;50.204;8.844;2023-05-15T12:18:12;99483.03;;;18.24;64.84
72570;BME280;60594;50.204;8.844;2023-05-15T12:20:40;99485.66;;;18.17;62.92
72570;BME280;60594;50.204;8.844;2023-05-15T12:23:16;99490.06;;;18.25;61.91
72570;BME280;60594;50.204;8.844;2023-05-15T12:25:45;99481.50;;;18.50;64.26
72570;BME280;60594;50.204;8.844;2023-05-15T12:28:13;99487.44;;;18.81;61.30
72570;BME280;60594;50.204;8.844;2023-05-15T12:30:41;99490.72;;;18.98;60.44
72570;BME280;60594;50.204;8.844;2023-05-15T12:33:09;99485.97;;;19.00;60.16
72570;BME280;60594;50.204;8.844;2023-05-15T12:35:41;99488.78;;;19.34;58.36
72570;BME280;60594;50.204;8.844;2023-05-15T12:38:08;99475.31;;;19.74;62.09
72570;BME280;60594;50.204;8.844;2023-05-15T12:40:39;99478.38;;;19.65;57.02
72570;BME280;60594;50.204;8.844;2023-05-15T12:43:06;99466.81;;;19.77;57.48
72570;BME280;60594;50.204;8.844;2023-05-15T12:45:36;99475.88;;;19.63;54.20
72570;BME280;60594;50.204;8.844;2023-05-15T12:48:03;99468.59;;;19.57;59.94
72570;BME280;60594;50.204;8.844;2023-05-15T12:50:32;99473.81;;;19.65;58.21
72570;BME280;60594;50.204;8.844;2023-05-15T12:53:02;99475.69;;;19.65;55.83
72570;BME280;60594;50.204;8.844;2023-05-15T12:55:32;99465.97;;;18.94;57.11
72570;BME280;60594;50.204;8.844;2023-05-15T12:58:07;99468.25;;;19.18;55.26
72570;BME280;60594;50.204;8.844;2023-05-15T13:00:35;99473.72;;;19.52;56.79
72570;BME280;60594;50.204;8.844;2023-05-15T13:03:03;99473.66;;;19.73;57.57
72570;BME280;60594;50.204;8.844;2023-05-15T13:05:31;99469.94;;;19.81;57.34
72570;BME280;60594;50.204;8.844;2023-05-15T13:07:58;99469.56;;;19.84;52.83
72570;BME280;60594;50.204;8.844;2023-05-15T13:10:25;99477.66;;;19.50;53.91
72570;BME280;60594;50.204;8.844;2023-05-15T13:12:53;99473.25;;;19.42;50.73
72570;BME280;60594;50.204;8.844;2023-05-15T13:18:04;99473.25;;;19.21;54.90
72570;BME280;60594;50.204;8.844;2023-05-15T13:20:41;99465.97;;;19.22;53.92
72570;BME280;60594;50.204;8.844;2023-05-15T13:23:10;99454.66;;;19.33;56.71
72570;BME280;60594;50.204;8.844;2023-05-15T13:25:38;99455.19;;;19.49;53.60
72570;BME280;60594;50.204;8.844;2023-05-15T13:28:07;99458.34;;;19.53;55.16
72570;BME280;60594;50.204;8.844;2023-05-15T13:30:38;99461.25;;;19.51;52.99
72570;BME280;60594;50.204;8.844;2023-05-15T13:33:11;99462.47;;;19.21;53.73
72570;BME280;60594;50.204;8.844;2023-05-15T13:35:49;99464.19;;;19.29;56.56